Cheyenne — 9HAK5 — position and weather

sailwx.info

Track history (hours):
 
Tides and Currents Weather Stations Pressure Air Temp Water Temp Dewpoint Dewpoint Depression Visibility Wind Speed Wind Dir Waves Ship Positions

Cheyenne

Last reported at 2017-Jun-14 20:22 UTC. Time now 2017-Jun-27 13:49 UTC.
Position N 45°16' E 036°28'.
Warning: this ship's position is 12 days out of date.

Length 133 m; draft 3.6 m.

Type: Ship. MMSI: 249607000.

Date/timePositionNaut miles runAvg speedWind from/ knotsBaromVisibWave heightAir tempDewpointWater temp
2017-Jun-14 20:22N 45°16' E 036°28'4 6.1
2017-Jun-14 19:43N 45°19' E 036°31'1 7.2
2017-Jun-14 19:30N 45°19' E 036°33'3 6.7
2017-Jun-14 19:00N 45°20' E 036°38'3 5.6
2017-Jun-14 18:30N 45°23' E 036°40'2 3.1
2017-Jun-14 18:00N 45°23' E 036°42'0 0.0
2017-Jun-14 17:30N 45°23' E 036°42'0 0.0
2017-Jun-14 17:00N 45°23' E 036°42'0 0.0
2017-Jun-14 16:30N 45°23' E 036°42'0 0.2
2017-Jun-14 16:00N 45°23' E 036°42'2 3.9
2017-Jun-14 15:30N 45°25' E 036°41'4 7.8
2017-Jun-14 15:00N 45°29' E 036°43'  
2017-Jun-05 11:13N 45°30' E 036°44'3 7.3
2017-Jun-05 10:44N 45°26' E 036°42'2 7.4
2017-Jun-05 10:30N 45°25' E 036°41'4 7.3
2017-Jun-05 10:00N 45°21' E 036°40'3 5.9
2017-Jun-05 09:30N 45°20' E 036°37'3 6.9
2017-Jun-05 09:00N 45°19' E 036°32'3 6.5
2017-Jun-05 08:30N 45°16' E 036°29'3 5.8
2017-Jun-05 08:00N 45°14' E 036°29'1 0.5
2017-Jun-05 06:17N 45°13' E 036°30'0 0.0
2017-Jun-05 05:53N 45°13' E 036°30'0 0.0
2017-Jun-05 05:29N 45°13' E 036°30'0 0.0
2017-Jun-05 02:47N 45°13' E 036°30'0 0.0
2017-Jun-05 02:26N 45°13' E 036°30'0 0.0
2017-Jun-05 01:59N 45°13' E 036°30'0 0.0
2017-Jun-05 00:41N 45°13' E 036°30'0 0.0
2017-Jun-05 00:14N 45°13' E 036°30'  
Track history (hours):
 
Tides and Currents Weather Stations Pressure Air Temp Water Temp Dewpoint Dewpoint Depression Visibility Wind Speed Wind Dir Waves Ship Positions

Cheyenne

Last reported at 2017-Jun-14 20:22 UTC. Time now 2017-Jun-27 13:49 UTC.
Position N 45°16' E 036°28'.
Warning: this ship's position is 12 days out of date.

Length 133 m; draft 3.6 m.

Type: Ship. MMSI: 249607000.

Date/timePositionNaut miles runAvg speedWind from/ knotsBaromVisibWave heightAir tempDewpointWater temp
2017-Jun-14 20:22N 45°16' E 036°28'4 6.1
2017-Jun-14 19:43N 45°19' E 036°31'1 7.2
2017-Jun-14 19:30N 45°19' E 036°33'3 6.7
2017-Jun-14 19:00N 45°20' E 036°38'3 5.6
2017-Jun-14 18:30N 45°23' E 036°40'2 3.1
2017-Jun-14 18:00N 45°23' E 036°42'0 0.0
2017-Jun-14 17:30N 45°23' E 036°42'0 0.0
2017-Jun-14 17:00N 45°23' E 036°42'0 0.0
2017-Jun-14 16:30N 45°23' E 036°42'0 0.2
2017-Jun-14 16:00N 45°23' E 036°42'2 3.9
2017-Jun-14 15:30N 45°25' E 036°41'4 7.8
2017-Jun-14 15:00N 45°29' E 036°43'  
2017-Jun-05 11:13N 45°30' E 036°44'3 7.3
2017-Jun-05 10:44N 45°26' E 036°42'2 7.4
2017-Jun-05 10:30N 45°25' E 036°41'4 7.3
2017-Jun-05 10:00N 45°21' E 036°40'3 5.9
2017-Jun-05 09:30N 45°20' E 036°37'3 6.9
2017-Jun-05 09:00N 45°19' E 036°32'3 6.5
2017-Jun-05 08:30N 45°16' E 036°29'3 5.8
2017-Jun-05 08:00N 45°14' E 036°29'1 0.5
2017-Jun-05 06:17N 45°13' E 036°30'0 0.0
2017-Jun-05 05:53N 45°13' E 036°30'0 0.0
2017-Jun-05 05:29N 45°13' E 036°30'0 0.0
2017-Jun-05 02:47N 45°13' E 036°30'0 0.0
2017-Jun-05 02:26N 45°13' E 036°30'0 0.0
2017-Jun-05 01:59N 45°13' E 036°30'0 0.0
2017-Jun-05 00:41N 45°13' E 036°30'0 0.0
2017-Jun-05 00:14N 45°13' E 036°30'  

Dump ship's entire track history